Terminal Aerodrome Forecast
Issued by NWS Wilmington, OH

Current Version | Previous Version | Text Only | Print | Product List | Glossary Off
Versions: 1 2 3 4 5 6 7 8 9 10 11 12 13

000
FTUS41 KILN 261120
TAFILN
TAF
KILN 261120Z 2612/2712 16008KT P6SM FEW250
     FM261500 18010G18KT P6SM FEW250
     FM261700 18014G24KT P6SM FEW250
     FM270000 18012G18KT P6SM FEW250
     FM270400 16012KT P6SM FEW250 WS020/19045KT
     FM271100 18012G18KT P6SM VCSH BKN100 WS020/19045KT=

USA.gov is the U.S. government's official web portal to all federal, state and local government web resources and services.